Time;durP1;ratioP1;P1;durP2;ratioP2;P2;SDS_P1;SDS_P2;PMS_P1;PMS_P2;Temp;Humidity;BMP_temperature;BMP_pressure;BME280_temperature;BME280_humidity;BME280_pressure;Samples;Min_cycle;Max_cycle;Signal;HPM_P1;HPM_P2
2022/07/22 00:02:21;;;;;;;;;;;17.60;99.90;;;;;;8403385;28;19932;-68
2022/07/22 00:06:23;;;;;;;;;;;17.50;99.90;;;;;;8384012;28;19920;-68
2022/07/22 00:10:25;;;;;;;;;;;17.50;99.90;;;;;;8372060;28;19927;-68
2022/07/22 00:14:26;;;;;;;;;;;17.50;99.90;;;;;;8389401;28;19920;-68
2022/07/22 00:18:29;;;;;;;;;;;17.50;99.90;;;;;;8390565;28;19943;-68
2022/07/22 00:22:31;;;;;;;;;;;17.50;99.90;;;;;;8391380;28;20486;-68
2022/07/22 00:26:33;;;;;;;;;;;17.50;99.90;;;;;;8373533;28;19931;-68
2022/07/22 00:30:34;;;;;;;;;;;17.50;99.90;;;;;;8378558;28;19924;-68
2022/07/22 00:34:36;;;;;;;;;;;17.50;99.90;;;;;;8380045;28;19932;-68
2022/07/22 00:38:38;;;;;;;;;;;17.50;99.90;;;;;;8380160;28;19958;-68
2022/07/22 00:42:40;;;;;;;;;;;17.50;99.90;;;;;;8389843;28;19927;-68
2022/07/22 00:46:41;;;;;;;;;;;17.50;99.90;;;;;;8371355;28;19944;-68
2022/07/22 00:50:44;;;;;;;;;;;17.50;99.90;;;;;;8388883;28;19931;-68
2022/07/22 00:54:45;;;;;;;;;;;17.50;99.90;;;;;;8380057;28;19920;-68
2022/07/22 00:58:48;;;;;;;;;;;17.50;99.90;;;;;;8382623;28;20360;-68
2022/07/22 01:02:50;;;;;;;;;;;17.50;99.90;;;;;;8389610;28;19969;-68
2022/07/22 01:06:52;;;;;;;;;;;17.50;99.90;;;;;;8385643;28;19920;-68
2022/07/22 01:10:54;;;;;;;;;;;17.50;99.90;;;;;;8365856;28;19962;-68
2022/07/22 01:14:55;;;;;;;;;;;17.50;99.90;;;;;;8380801;28;19938;-68
2022/07/22 01:18:57;;;;;;;;;;;17.60;99.90;;;;;;8382720;28;19932;-68
2022/07/22 01:22:59;;;;;;;;;;;17.60;99.90;;;;;;8384296;28;19925;-68
2022/07/22 01:27:01;;;;;;;;;;;17.60;99.90;;;;;;8385602;28;19950;-68
2022/07/22 01:31:03;;;;;;;;;;;17.70;99.90;;;;;;8374534;28;19920;-68
2022/07/22 01:35:05;;;;;;;;;;;17.70;99.90;;;;;;8386628;28;19940;-68
2022/07/22 01:39:06;;;;;;;;;;;17.70;99.90;;;;;;8370187;28;20372;-68
2022/07/22 01:43:08;;;;;;;;;;;17.70;99.90;;;;;;8379892;28;19927;-68
2022/07/22 01:47:10;;;;;;;;;;;17.70;99.90;;;;;;8383566;28;19927;-68
2022/07/22 01:51:12;;;;;;;;;;;17.70;99.90;;;;;;8387786;28;19970;-68
2022/07/22 01:55:14;;;;;;;;;;;17.70;99.90;;;;;;8387064;28;19932;-68
2022/07/22 01:59:15;;;;;;;;;;;17.70;99.90;;;;;;8388624;28;19921;-68
2022/07/22 02:03:17;;;;;;;;;;;17.70;99.90;;;;;;8368429;28;19931;-68
2022/07/22 02:07:18;;;;;;;;;;;17.70;99.90;;;;;;8375334;28;19927;-68
2022/07/22 02:11:20;;;;;;;;;;;17.70;99.90;;;;;;8383361;28;19939;-68
2022/07/22 02:15:22;;;;;;;;;;;17.70;99.90;;;;;;8382227;28;19920;-68
2022/07/22 02:19:23;;;;;;;;;;;17.70;99.90;;;;;;8386407;28;19932;-68
2022/07/22 02:23:25;;;;;;;;;;;17.60;99.90;;;;;;8390992;28;19924;-68
2022/07/22 02:27:27;;;;;;;;;;;17.70;99.90;;;;;;8388781;28;20000;-68
2022/07/22 02:31:28;;;;;;;;;;;17.70;99.90;;;;;;8372697;28;19928;-68
2022/07/22 02:35:30;;;;;;;;;;;17.60;99.90;;;;;;8381147;28;19964;-68
2022/07/22 02:39:32;;;;;;;;;;;17.60;99.90;;;;;;8384010;28;19921;-68
2022/07/22 02:43:34;;;;;;;;;;;17.60;99.90;;;;;;8393715;28;19993;-68
2022/07/22 02:47:43;;;;;;;;;;;17.60;99.90;;;;;;8393057;28;19921;-68
2022/07/22 02:51:45;;;;;;;;;;;17.60;99.90;;;;;;8395092;28;20284;-68
2022/07/22 02:55:47;;;;;;;;;;;17.60;99.90;;;;;;8366437;28;20332;-68
2022/07/22 02:59:48;;;;;;;;;;;17.50;99.90;;;;;;8386310;28;19920;-68
2022/07/22 03:03:50;;;;;;;;;;;17.50;99.90;;;;;;8403718;28;19921;-68
2022/07/22 03:07:52;;;;;;;;;;;17.50;99.90;;;;;;8373744;28;20287;-68
2022/07/22 03:11:53;;;;;;;;;;;17.50;99.90;;;;;;8382912;28;19925;-68
2022/07/22 03:15:55;;;;;;;;;;;17.50;99.90;;;;;;8412241;28;19925;-68
2022/07/22 03:19:57;;;;;;;;;;;17.50;99.90;;;;;;8381846;28;19924;-68
2022/07/22 03:23:58;;;;;;;;;;;17.50;99.90;;;;;;8369261;28;19928;-68
2022/07/22 03:28:00;;;;;;;;;;;17.50;99.90;;;;;;8387545;28;19925;-68
2022/07/22 03:32:02;;;;;;;;;;;17.50;99.90;;;;;;8390170;28;19928;-68
2022/07/22 03:36:05;;;;;;;;;;;17.50;99.90;;;;;;8376663;28;19920;-68
2022/07/22 03:40:07;;;;;;;;;;;17.50;99.90;;;;;;8386486;28;19920;-68
2022/07/22 03:44:08;;;;;;;;;;;17.50;99.90;;;;;;8394731;28;19920;-68
2022/07/22 03:48:10;;;;;;;;;;;17.50;99.90;;;;;;8392394;28;19920;-68
2022/07/22 03:52:12;;;;;;;;;;;17.40;99.90;;;;;;8390401;28;20235;-68
2022/07/22 03:56:15;;;;;;;;;;;17.50;99.90;;;;;;8383127;28;19924;-68
2022/07/22 04:00:17;;;;;;;;;;;17.50;99.90;;;;;;8384916;28;19935;-68
2022/07/22 04:04:18;;;;;;;;;;;17.50;99.90;;;;;;8390438;28;19920;-68
2022/07/22 04:08:20;;;;;;;;;;;17.50;99.90;;;;;;8391647;28;19920;-68
2022/07/22 04:12:22;;;;;;;;;;;17.50;99.90;;;;;;8392804;28;19924;-68
2022/07/22 04:16:23;;;;;;;;;;;17.50;99.90;;;;;;8392827;28;19920;-68
2022/07/22 04:20:25;;;;;;;;;;;17.50;99.90;;;;;;8389605;28;20034;-68
2022/07/22 04:24:27;;;;;;;;;;;17.50;99.90;;;;;;8392651;28;19924;-68
2022/07/22 04:28:28;;;;;;;;;;;17.50;99.90;;;;;;8392820;28;19935;-68
2022/07/22 04:32:30;;;;;;;;;;;17.50;99.90;;;;;;8376051;28;19925;-68
2022/07/22 04:36:31;;;;;;;;;;;17.50;99.90;;;;;;8403645;28;19920;-68
2022/07/22 04:40:33;;;;;;;;;;;17.50;99.90;;;;;;8387928;28;19924;-68
2022/07/22 04:44:35;;;;;;;;;;;17.50;99.90;;;;;;8385623;28;19929;-68
2022/07/22 04:48:36;;;;;;;;;;;17.60;99.90;;;;;;8392111;28;19920;-68
2022/07/22 04:52:38;;;;;;;;;;;17.60;99.90;;;;;;8375152;28;19927;-68
2022/07/22 04:56:41;;;;;;;;;;;17.50;99.90;;;;;;8388655;28;19921;-68
2022/07/22 05:00:43;;;;;;;;;;;17.50;99.90;;;;;;8381028;28;20364;-68
2022/07/22 05:04:45;;;;;;;;;;;17.60;99.90;;;;;;8382669;28;19921;-68
2022/07/22 05:08:46;;;;;;;;;;;17.50;99.90;;;;;;8383381;28;19924;-68
2022/07/22 05:12:48;;;;;;;;;;;17.60;99.90;;;;;;8386675;28;19951;-68
2022/07/22 05:16:50;;;;;;;;;;;17.60;99.90;;;;;;8386746;28;19943;-68
2022/07/22 05:20:51;;;;;;;;;;;17.60;99.90;;;;;;8382741;28;19924;-68
2022/07/22 05:24:53;;;;;;;;;;;17.60;99.90;;;;;;8379909;28;20279;-68
2022/07/22 05:28:55;;;;;;;;;;;17.60;99.90;;;;;;8388974;28;20387;-68
2022/07/22 05:32:57;;;;;;;;;;;17.70;99.90;;;;;;8373867;28;19951;-68
2022/07/22 05:36:58;;;;;;;;;;;17.60;99.90;;;;;;8381367;28;19927;-68
2022/07/22 05:41:00;;;;;;;;;;;17.70;99.90;;;;;;8359614;28;19928;-68
2022/07/22 05:45:02;;;;;;;;;;;17.70;99.90;;;;;;8377394;28;19921;-68
2022/07/22 05:49:04;;;;;;;;;;;17.70;99.90;;;;;;8379232;28;19920;-68
2022/07/22 05:53:05;;;;;;;;;;;17.80;99.90;;;;;;8352113;28;19921;-68
2022/07/22 05:57:10;;;;;;;;;;;17.80;99.90;;;;;;8370942;28;19929;-68
2022/07/22 06:01:12;;;;;;;;;;;17.80;99.90;;;;;;8352248;28;19925;-68
2022/07/22 06:05:14;;;;;;;;;;;17.80;99.90;;;;;;8352012;28;20005;-68
2022/07/22 06:09:35;;;;;;;;;;;17.80;99.90;;;;;;8355466;28;19956;-68
2022/07/22 06:13:37;;;;;;;;;;;17.80;99.90;;;;;;8356959;28;20269;-68
2022/07/22 06:17:39;;;;;;;;;;;17.90;99.90;;;;;;8357069;28;19927;-68
2022/07/22 06:21:40;;;;;;;;;;;17.90;99.90;;;;;;8358700;28;19921;-68
2022/07/22 06:25:45;;;;;;;;;;;17.90;99.90;;;;;;8360363;28;19982;-68
2022/07/22 06:29:47;;;;;;;;;;;17.90;99.90;;;;;;8357840;28;20430;-66
2022/07/22 06:33:49;;;;;;;;;;;18.00;99.90;;;;;;8376624;28;20383;-66
2022/07/22 06:37:51;;;;;;;;;;;18.00;99.90;;;;;;8357597;28;19921;-66
2022/07/22 06:42:08;;;;;;;;;;;18.00;99.90;;;;;;8356566;28;19943;-66
2022/07/22 06:46:09;;;;;;;;;;;18.10;99.90;;;;;;8356800;28;19929;-65
2022/07/22 06:50:11;;;;;;;;;;;18.20;99.90;;;;;;8357869;28;19975;-66
2022/07/22 06:54:14;;;;;;;;;;;18.20;99.90;;;;;;8356092;28;19974;-66
2022/07/22 06:58:15;;;;;;;;;;;18.30;99.90;;;;;;8357508;28;19920;-66
2022/07/22 07:02:17;;;;;;;;;;;18.30;99.90;;;;;;8356503;28;19928;-65
2022/07/22 07:06:19;;;;;;;;;;;18.30;99.90;;;;;;8358578;28;19920;-65
2022/07/22 07:10:21;;;;;;;;;;;18.40;99.90;;;;;;8356555;28;20295;-66
2022/07/22 07:14:22;;;;;;;;;;;18.40;99.90;;;;;;8355694;28;19921;-66
2022/07/22 07:18:24;;;;;;;;;;;18.40;99.90;;;;;;8355307;28;19920;-66
2022/07/22 07:22:26;;;;;;;;;;;18.40;99.90;;;;;;8354748;28;19924;-66
2022/07/22 07:26:28;;;;;;;;;;;18.50;99.90;;;;;;8357058;28;19924;-66
2022/07/22 07:30:29;;;;;;;;;;;18.50;99.90;;;;;;8355939;28;20421;-68
2022/07/22 07:34:31;;;;;;;;;;;18.60;99.90;;;;;;8356099;28;19990;-68
2022/07/22 07:38:34;;;;;;;;;;;18.70;99.90;;;;;;8357216;28;19931;-68
2022/07/22 07:42:35;;;;;;;;;;;18.80;99.90;;;;;;8356246;28;19935;-68
2022/07/22 07:46:44;;;;;;;;;;;18.80;99.90;;;;;;8354986;28;19926;-68
2022/07/22 07:50:46;;;;;;;;;;;18.90;99.90;;;;;;8360151;28;19932;-68
2022/07/22 07:54:48;;;;;;;;;;;19.00;99.90;;;;;;8355260;28;20371;-68
2022/07/22 07:59:09;;;;;;;;;;;19.00;99.90;;;;;;8371012;28;19971;-68
2022/07/22 08:03:29;;;;;;;;;;;19.00;99.90;;;;;;8354679;28;19978;-68
2022/07/22 08:07:31;;;;;;;;;;;19.00;99.90;;;;;;8355418;28;19921;-68
2022/07/22 08:11:33;;;;;;;;;;;19.00;99.90;;;;;;8354684;28;20380;-68
2022/07/22 08:15:35;;;;;;;;;;;19.10;99.90;;;;;;8355294;28;19920;-68
2022/07/22 08:19:37;;;;;;;;;;;19.10;99.90;;;;;;8339692;28;19998;-68
2022/07/22 08:23:39;;;;;;;;;;;19.20;99.90;;;;;;8354623;28;20364;-68
2022/07/22 08:27:40;;;;;;;;;;;19.30;99.90;;;;;;8355579;28;19928;-68
2022/07/22 08:31:42;;;;;;;;;;;19.40;99.90;;;;;;8354358;28;19928;-68
2022/07/22 08:35:44;;;;;;;;;;;19.40;99.90;;;;;;8368725;28;19999;-68
2022/07/22 08:39:45;;;;;;;;;;;19.40;99.90;;;;;;8372117;28;19921;-68
2022/07/22 08:43:48;;;;;;;;;;;19.40;99.90;;;;;;8370962;28;20529;-68
2022/07/22 08:47:51;;;;;;;;;;;19.40;99.90;;;;;;8354120;28;19925;-68
2022/07/22 08:51:53;;;;;;;;;;;19.40;99.90;;;;;;8353701;28;20415;-68
2022/07/22 08:55:55;;;;;;;;;;;19.40;99.90;;;;;;8354122;28;20305;-68
2022/07/22 08:59:57;;;;;;;;;;;19.30;99.90;;;;;;8353120;28;19920;-68
2022/07/22 09:03:59;;;;;;;;;;;19.40;99.90;;;;;;8352352;28;20372;-68
2022/07/22 09:08:01;;;;;;;;;;;19.40;99.90;;;;;;8353344;28;20019;-68
2022/07/22 09:12:04;;;;;;;;;;;19.40;99.90;;;;;;8367879;28;20242;-68
2022/07/22 09:16:06;;;;;;;;;;;19.50;99.90;;;;;;8352014;28;20403;-68
2022/07/22 09:20:16;;;;;;;;;;;19.50;99.90;;;;;;8369127;28;20019;-68
2022/07/22 09:24:30;;;;;;;;;;;19.60;99.90;;;;;;8351612;28;20478;-68
2022/07/22 09:28:32;;;;;;;;;;;19.50;99.90;;;;;;8353132;28;19921;-68
2022/07/22 09:32:41;;;;;;;;;;;19.60;99.90;;;;;;8351157;28;19930;-68
2022/07/22 09:36:53;;;;;;;;;;;19.60;99.90;;;;;;8352533;28;19963;-68
2022/07/22 09:40:55;;;;;;;;;;;19.70;99.90;;;;;;8354356;28;20065;-68
2022/07/22 09:44:57;;;;;;;;;;;19.70;99.90;;;;;;8365736;28;19921;-68
2022/07/22 09:48:58;;;;;;;;;;;19.80;99.90;;;;;;8352972;28;19928;-68
2022/07/22 09:53:01;;;;;;;;;;;19.80;99.90;;;;;;8350837;28;19924;-68
2022/07/22 09:57:04;;;;;;;;;;;19.90;99.90;;;;;;8355144;28;19932;-68
2022/07/22 10:01:07;;;;;;;;;;;20.00;99.90;;;;;;8369469;28;19943;-68
2022/07/22 10:05:10;;;;;;;;;;;20.20;99.90;;;;;;8349998;28;20339;-68
2022/07/22 10:09:13;;;;;;;;;;;20.30;99.90;;;;;;8352775;28;19921;-68
2022/07/22 10:13:17;;;;;;;;;;;20.40;99.90;;;;;;8350265;28;19920;-68
2022/07/22 10:17:19;;;;;;;;;;;20.50;99.90;;;;;;8367545;28;20376;-68
2022/07/22 10:21:30;;;;;;;;;;;20.50;99.90;;;;;;8351599;28;20363;-68
2022/07/22 10:25:47;;;;;;;;;;;20.50;99.90;;;;;;8353341;28;19924;-68
2022/07/22 10:29:49;;;;;;;;;;;20.50;99.90;;;;;;8351401;28;19929;-68
2022/07/22 10:33:51;;;;;;;;;;;20.50;99.90;;;;;;8350784;28;19921;-68
2022/07/22 10:37:54;;;;;;;;;;;20.50;99.90;;;;;;8351763;28;19928;-68
2022/07/22 10:41:56;;;;;;;;;;;20.50;99.90;;;;;;8351018;28;19924;-68
2022/07/22 10:45:59;;;;;;;;;;;20.50;99.90;;;;;;8351427;28;19927;-68
2022/07/22 10:50:19;;;;;;;;;;;20.50;99.90;;;;;;8352369;28;19920;-69
2022/07/22 10:54:20;;;;;;;;;;;20.60;99.90;;;;;;8353257;28;19921;-68
2022/07/22 10:58:41;;;;;;;;;;;20.80;99.90;;;;;;8357086;28;19921;-68
2022/07/22 11:02:43;;;;;;;;;;;20.80;99.90;;;;;;8357170;28;20284;-68
2022/07/22 11:06:47;;;;;;;;;;;20.90;99.90;;;;;;8357870;28;20400;-68
2022/07/22 11:10:49;;;;;;;;;;;20.80;99.90;;;;;;8357492;28;19978;-68
2022/07/22 11:14:50;;;;;;;;;;;20.80;99.90;;;;;;8354458;28;19925;-68
2022/07/22 11:18:53;;;;;;;;;;;20.70;99.90;;;;;;8355913;28;20292;-68
2022/07/22 11:22:56;;;;;;;;;;;20.70;99.90;;;;;;8356376;28;19920;-68
2022/07/22 11:26:59;;;;;;;;;;;20.70;99.90;;;;;;8356075;28;20379;-68
2022/07/22 11:41:18;;;;;;;;;;;20.90;99.90;;;;;;8355928;28;19919;-68
2022/07/22 11:45:19;;;;;;;;;;;20.90;99.90;;;;;;8354446;28;19928;-68
2022/07/22 11:49:21;;;;;;;;;;;20.90;99.90;;;;;;8355915;28;19921;-68
2022/07/22 11:53:23;;;;;;;;;;;20.90;99.90;;;;;;8352878;28;19932;-68
2022/07/22 11:57:25;;;;;;;;;;;21.00;99.90;;;;;;8354914;28;20339;-68
2022/07/22 12:01:27;;;;;;;;;;;21.10;99.90;;;;;;8354546;28;20288;-68
2022/07/22 12:05:29;;;;;;;;;;;21.20;99.90;;;;;;8355263;28;19928;-68
2022/07/22 12:09:34;;;;;;;;;;;21.30;99.90;;;;;;8355940;28;20160;-68
2022/07/22 12:13:40;;;;;;;;;;;21.30;99.90;;;;;;8353981;28;20295;-68
2022/07/22 12:17:45;;;;;;;;;;;21.50;99.90;;;;;;8355071;28;20046;-68
2022/07/22 12:22:15;;;;;;;;;;;21.50;99.90;;;;;;8355279;28;19920;-68
2022/07/22 12:26:17;;;;;;;;;;;21.50;99.90;;;;;;8354558;28;20356;-68
2022/07/22 12:30:19;;;;;;;;;;;21.50;99.90;;;;;;8356237;28;19932;-68
2022/07/22 12:34:43;;;;;;;;;;;21.40;99.90;;;;;;8354147;28;19921;-68
2022/07/22 12:38:45;;;;;;;;;;;21.40;99.90;;;;;;8347707;28;19924;-68
2022/07/22 12:42:59;;;;;;;;;;;21.30;99.90;;;;;;8352855;28;20292;-68
2022/07/22 12:47:01;;;;;;;;;;;21.30;99.90;;;;;;8353646;28;19935;-68
2022/07/22 12:51:02;;;;;;;;;;;21.30;99.90;;;;;;8355289;28;19927;-68
2022/07/22 12:55:04;;;;;;;;;;;21.40;99.90;;;;;;8352688;28;19932;-68
2022/07/22 12:59:06;;;;;;;;;;;21.40;99.90;;;;;;8352822;28;19928;-66
2022/07/22 13:03:08;;;;;;;;;;;21.40;99.90;;;;;;8367721;28;19928;-66
2022/07/22 13:07:09;;;;;;;;;;;21.40;99.90;;;;;;8353724;28;19924;-66
2022/07/22 13:11:11;;;;;;;;;;;21.40;99.90;;;;;;8353544;28;19928;-66
2022/07/22 13:15:13;;;;;;;;;;;21.40;99.90;;;;;;8351072;28;19920;-66
2022/07/22 13:19:14;;;;;;;;;;;21.40;99.90;;;;;;8338075;28;19925;-66
2022/07/22 13:23:16;;;;;;;;;;;21.50;99.90;;;;;;8352121;28;19931;-66
2022/07/22 13:27:18;;;;;;;;;;;21.50;99.90;;;;;;8369082;28;19951;-66
2022/07/22 13:31:19;;;;;;;;;;;21.50;99.90;;;;;;8352604;28;19935;-66
2022/07/22 13:35:21;;;;;;;;;;;21.50;99.90;;;;;;8351804;28;20525;-66
2022/07/22 13:39:23;;;;;;;;;;;21.50;99.90;;;;;;8352943;28;20367;-66
2022/07/22 13:43:25;;;;;;;;;;;21.60;99.90;;;;;;8349976;28;19927;-66
2022/07/22 13:47:27;;;;;;;;;;;21.60;99.90;;;;;;8353502;28;19925;-66
2022/07/22 13:51:28;;;;;;;;;;;21.60;99.90;;;;;;8352344;28;19924;-66
2022/07/22 13:55:30;;;;;;;;;;;21.70;99.90;;;;;;8352725;28;19931;-66
2022/07/22 13:59:32;;;;;;;;;;;21.70;99.90;;;;;;8352770;28;20359;-66
2022/07/22 14:03:36;;;;;;;;;;;21.70;99.90;;;;;;8351835;28;20297;-66
2022/07/22 14:07:38;;;;;;;;;;;21.70;99.90;;;;;;8352868;28;19924;-66
2022/07/22 14:11:39;;;;;;;;;;;21.70;99.90;;;;;;8351826;28;19963;-66
2022/07/22 14:15:41;;;;;;;;;;;21.60;99.90;;;;;;8351120;28;19931;-66
2022/07/22 14:19:42;;;;;;;;;;;21.60;99.90;;;;;;8351478;28;19928;-66
2022/07/22 14:23:44;;;;;;;;;;;21.70;99.90;;;;;;8351284;28;19925;-66
2022/07/22 14:27:46;;;;;;;;;;;21.70;99.90;;;;;;8353218;28;19937;-66
2022/07/22 14:31:47;;;;;;;;;;;21.80;99.90;;;;;;8357864;28;19929;-66
2022/07/22 14:35:49;;;;;;;;;;;21.80;99.90;;;;;;8357098;28;20391;-65
2022/07/22 14:39:51;;;;;;;;;;;21.80;99.90;;;;;;8357357;28;19928;-66
2022/07/22 14:43:52;;;;;;;;;;;21.90;99.90;;;;;;8357130;28;19932;-66
2022/07/22 14:47:54;;;;;;;;;;;21.90;99.90;;;;;;8358718;28;19929;-66
2022/07/22 14:51:56;;;;;;;;;;;21.90;99.90;;;;;;8357406;28;20194;-66
2022/07/22 14:55:57;;;;;;;;;;;22.00;99.90;;;;;;8357965;28;19925;-66
2022/07/22 14:59:59;;;;;;;;;;;22.10;99.90;;;;;;8356841;28;19932;-66
2022/07/22 15:04:01;;;;;;;;;;;22.10;99.90;;;;;;8359642;28;20379;-66
2022/07/22 15:08:03;;;;;;;;;;;22.20;99.90;;;;;;8357138;28;19931;-66
2022/07/22 15:12:05;;;;;;;;;;;22.20;99.90;;;;;;8354685;28;20415;-66
2022/07/22 15:16:25;;;;;;;;;;;22.30;99.90;;;;;;8357655;28;19933;-66
2022/07/22 15:20:26;;;;;;;;;;;22.30;99.90;;;;;;8340226;28;19929;-66
2022/07/22 15:24:28;;;;;;;;;;;22.30;99.90;;;;;;8356080;28;19936;-66
2022/07/22 15:28:30;;;;;;;;;;;22.30;99.90;;;;;;8356468;28;19948;-66
2022/07/22 15:32:35;;;;;;;;;;;22.30;99.90;;;;;;8356023;28;19975;-66
2022/07/22 15:36:36;;;;;;;;;;;22.20;99.90;;;;;;8355561;28;19929;-66
2022/07/22 15:40:38;;;;;;;;;;;22.20;99.90;;;;;;8356926;28;20288;-66
2022/07/22 15:44:40;;;;;;;;;;;22.20;99.90;;;;;;8355323;28;19924;-66
2022/07/22 15:48:42;;;;;;;;;;;22.20;99.90;;;;;;8357753;28;19924;-66
2022/07/22 15:52:44;;;;;;;;;;;22.30;99.90;;;;;;8353970;28;20355;-66
2022/07/22 15:56:45;;;;;;;;;;;22.40;99.90;;;;;;8355264;28;20372;-66
2022/07/22 16:00:47;;;;;;;;;;;22.40;99.90;;;;;;8355014;28;20292;-66
2022/07/22 16:04:49;;;;;;;;;;;22.40;99.90;;;;;;8355484;28;20237;-66
2022/07/22 16:08:50;;;;;;;;;;;22.40;99.90;;;;;;8355281;28;19931;-66
2022/07/22 16:12:52;;;;;;;;;;;22.50;99.90;;;;;;8367940;28;19932;-66
2022/07/22 16:16:54;;;;;;;;;;;22.60;99.90;;;;;;8355492;28;20791;-66
2022/07/22 16:20:56;;;;;;;;;;;22.70;99.90;;;;;;8354305;28;19999;-66
2022/07/22 16:24:57;;;;;;;;;;;22.70;99.90;;;;;;8354736;28;19952;-66
2022/07/22 16:28:59;;;;;;;;;;;22.60;99.90;;;;;;8354035;28;20231;-66
2022/07/22 16:33:01;;;;;;;;;;;22.50;99.90;;;;;;8337156;28;19929;-66
2022/07/22 16:37:03;;;;;;;;;;;22.40;99.90;;;;;;8355289;28;19932;-66
2022/07/22 16:41:04;;;;;;;;;;;22.40;99.90;;;;;;8353638;28;19929;-66
2022/07/22 16:45:07;;;;;;;;;;;22.50;99.90;;;;;;8354083;28;19947;-65
2022/07/22 16:49:09;;;;;;;;;;;22.50;99.90;;;;;;8352943;28;19932;-66
2022/07/22 16:53:11;;;;;;;;;;;22.60;99.90;;;;;;8347980;28;19990;-66
2022/07/22 16:57:12;;;;;;;;;;;22.80;99.90;;;;;;8350344;28;19926;-66
2022/07/22 17:01:14;;;;;;;;;;;22.90;99.90;;;;;;8349812;28;20187;-66
2022/07/22 17:05:16;;;;;;;;;;;22.90;99.90;;;;;;8353475;28;19928;-66
2022/07/22 17:09:18;;;;;;;;;;;22.90;99.90;;;;;;8353260;28;19963;-66
2022/07/22 17:13:20;;;;;;;;;;;22.90;99.90;;;;;;8352111;28;20269;-66
2022/07/22 17:17:30;;;;;;;;;;;22.90;99.90;;;;;;8353648;28;19932;-66
2022/07/22 17:21:31;;;;;;;;;;;22.90;99.90;;;;;;8351860;28;19947;-65
2022/07/22 17:25:33;;;;;;;;;;;22.90;99.90;;;;;;8353149;28;19932;-65
2022/07/22 17:29:34;;;;;;;;;;;22.90;99.90;;;;;;8352568;28;20811;-66
2022/07/22 17:33:36;;;;;;;;;;;22.90;99.90;;;;;;8354532;28;20447;-66
2022/07/22 17:37:38;;;;;;;;;;;22.90;99.90;;;;;;8353356;28;19925;-66
2022/07/22 17:41:39;;;;;;;;;;;22.80;99.90;;;;;;8352145;28;19924;-66
2022/07/22 17:45:41;;;;;;;;;;;22.80;99.90;;;;;;8351166;28;19925;-66
2022/07/22 17:49:43;;;;;;;;;;;22.70;99.90;;;;;;8353583;28;19925;-66
2022/07/22 17:53:44;;;;;;;;;;;22.70;99.90;;;;;;8351753;28;19932;-66
2022/07/22 17:57:46;;;;;;;;;;;22.70;99.90;;;;;;8351932;28;19936;-66
2022/07/22 18:01:48;;;;;;;;;;;22.60;99.90;;;;;;8353010;28;19932;-66
2022/07/22 18:05:51;;;;;;;;;;;22.50;99.90;;;;;;8357168;28;19924;-66
2022/07/22 18:20:19;;;;;;;;;;;22.20;99.90;;;;;;8345826;28;19998;-66
2022/07/22 18:24:22;;;;;;;;;;;22.00;99.90;;;;;;8357994;28;19929;-66
2022/07/22 18:28:23;;;;;;;;;;;21.80;99.90;;;;;;8357760;28;20376;-66
2022/07/22 18:32:25;;;;;;;;;;;21.60;99.90;;;;;;8356278;28;19940;-66
2022/07/22 18:36:27;;;;;;;;;;;21.50;99.90;;;;;;8358073;28;19952;-66
2022/07/22 18:40:28;;;;;;;;;;;21.40;99.90;;;;;;8360473;28;19939;-66
2022/07/22 18:44:30;;;;;;;;;;;21.30;99.90;;;;;;8358859;28;19928;-66
2022/07/22 18:48:32;;;;;;;;;;;21.30;99.90;;;;;;8358564;28;19929;-66
2022/07/22 18:52:33;;;;;;;;;;;21.20;99.90;;;;;;8357612;28;19937;-66
2022/07/22 18:56:37;;;;;;;;;;;21.20;99.90;;;;;;8357839;28;19925;-66
2022/07/22 19:00:39;;;;;;;;;;;21.20;99.90;;;;;;8358461;28;19925;-66
2022/07/22 19:04:41;;;;;;;;;;;21.20;99.90;;;;;;8372488;28;19991;-66
2022/07/22 19:08:42;;;;;;;;;;;21.10;99.90;;;;;;8357845;28;20295;-66
2022/07/22 19:12:44;;;;;;;;;;;21.10;99.90;;;;;;8355248;28;19924;-66
2022/07/22 19:16:46;;;;;;;;;;;21.00;99.90;;;;;;8374690;28;20319;-66
2022/07/22 19:20:47;;;;;;;;;;;21.00;99.90;;;;;;8357036;28;19929;-66
2022/07/22 19:24:49;;;;;;;;;;;21.00;99.90;;;;;;8358333;28;19936;-66
2022/07/22 19:28:51;;;;;;;;;;;20.90;99.90;;;;;;8358443;28;19925;-66
2022/07/22 19:32:52;;;;;;;;;;;20.90;99.90;;;;;;8354881;28;19936;-66
2022/07/22 19:36:54;;;;;;;;;;;20.80;99.90;;;;;;8357460;28;19929;-66
2022/07/22 19:40:55;;;;;;;;;;;20.80;99.90;;;;;;8372569;28;19932;-66
2022/07/22 19:44:57;;;;;;;;;;;20.70;99.90;;;;;;8340912;28;19932;-66
2022/07/22 19:49:00;;;;;;;;;;;20.70;99.90;;;;;;8356561;28;19929;-66
2022/07/22 19:53:02;;;;;;;;;;;20.60;99.90;;;;;;8370941;28;19968;-66
2022/07/22 20:12:11;;;;;;;;;;;20.40;99.90;;;;;;8354472;28;20377;-66
2022/07/22 20:16:13;;;;;;;;;;;20.30;99.90;;;;;;8373004;28;19932;-66
2022/07/22 20:20:14;;;;;;;;;;;20.30;99.90;;;;;;8355268;28;19929;-66
2022/07/22 20:24:16;;;;;;;;;;;20.20;99.90;;;;;;8354424;28;19925;-66
2022/07/22 20:28:18;;;;;;;;;;;20.20;99.90;;;;;;8354088;28;19925;-66
2022/07/22 20:32:19;;;;;;;;;;;20.20;99.90;;;;;;8353554;28;19925;-66
2022/07/22 20:36:21;;;;;;;;;;;20.10;99.90;;;;;;8356680;28;19944;-66
2022/07/22 20:40:23;;;;;;;;;;;20.10;99.90;;;;;;8372783;28;19939;-66
2022/07/22 20:44:24;;;;;;;;;;;20.10;99.90;;;;;;8352794;28;19929;-66
2022/07/22 20:48:26;;;;;;;;;;;20.10;99.90;;;;;;8354546;28;24986;-66
2022/07/22 20:52:28;;;;;;;;;;;20.00;99.90;;;;;;8355025;28;19940;-66
2022/07/22 20:56:29;;;;;;;;;;;20.00;99.90;;;;;;8354380;28;19924;-66
2022/07/22 21:00:31;;;;;;;;;;;19.90;99.90;;;;;;8355989;28;20331;-66
2022/07/22 21:04:33;;;;;;;;;;;19.90;99.90;;;;;;8382267;28;20330;-66
2022/07/22 21:18:41;;;;;;;;;;;19.80;99.90;;;;;;8382550;28;20015;-67
2022/07/22 21:22:44;;;;;;;;;;;19.80;99.90;;;;;;8388493;28;20288;-66
2022/07/22 21:26:46;;;;;;;;;;;19.80;99.90;;;;;;8383049;28;19931;-66
2022/07/22 21:30:48;;;;;;;;;;;19.70;99.90;;;;;;8382033;28;19928;-66
2022/07/22 21:34:49;;;;;;;;;;;19.70;99.90;;;;;;8384522;28;19931;-66
2022/07/22 21:38:51;;;;;;;;;;;19.60;99.90;;;;;;8361950;28;19934;-66
2022/07/22 21:42:53;;;;;;;;;;;19.60;99.90;;;;;;8384888;28;19929;-66
2022/07/22 21:46:54;;;;;;;;;;;19.60;99.90;;;;;;8392943;28;19935;-66
2022/07/22 21:50:56;;;;;;;;;;;19.60;99.90;;;;;;8392782;28;19924;-66
2022/07/22 21:54:57;;;;;;;;;;;19.60;99.90;;;;;;8377420;28;19925;-66
2022/07/22 21:58:59;;;;;;;;;;;19.50;99.90;;;;;;8377872;28;19925;-66
2022/07/22 22:03:01;;;;;;;;;;;19.50;99.90;;;;;;8373186;28;19924;-66
2022/07/22 22:07:03;;;;;;;;;;;19.50;99.90;;;;;;8389972;28;20027;-66
2022/07/22 22:11:04;;;;;;;;;;;19.50;99.90;;;;;;8388431;28;19939;-66
2022/07/22 22:20:09;;;;;;;;;;;19.30;99.90;;;;;;8382499;28;19939;-66
2022/07/22 22:24:11;;;;;;;;;;;19.20;99.90;;;;;;8387007;28;20007;-66
2022/07/22 22:28:13;;;;;;;;;;;19.10;99.90;;;;;;8391568;28;19935;-66
2022/07/22 22:32:14;;;;;;;;;;;19.00;99.90;;;;;;8392190;28;19924;-66
2022/07/22 22:36:18;;;;;;;;;;;19.00;99.90;;;;;;8370199;28;19935;-66
2022/07/22 22:40:19;;;;;;;;;;;18.90;99.90;;;;;;8367776;28;19929;-66
2022/07/22 22:44:21;;;;;;;;;;;18.80;99.90;;;;;;8382782;28;20390;-66
2022/07/22 22:48:22;;;;;;;;;;;18.70;99.90;;;;;;8391195;28;19951;-66
2022/07/22 22:52:24;;;;;;;;;;;18.60;99.90;;;;;;8389587;28;19924;-66
2022/07/22 22:56:26;;;;;;;;;;;18.50;99.90;;;;;;8384662;28;19943;-66
2022/07/22 23:00:27;;;;;;;;;;;18.40;99.90;;;;;;8385359;28;19928;-66
2022/07/22 23:04:29;;;;;;;;;;;18.30;99.90;;;;;;8394199;28;19932;-66
2022/07/22 23:08:31;;;;;;;;;;;18.20;99.90;;;;;;8390064;28;19925;-66
2022/07/22 23:12:32;;;;;;;;;;;18.10;99.90;;;;;;8384195;28;19936;-66
2022/07/22 23:16:34;;;;;;;;;;;18.10;99.90;;;;;;8390270;28;19939;-66
2022/07/22 23:20:47;;;;;;;;;;;18.00;99.90;;;;;;8388897;28;20011;-66
2022/07/22 23:24:49;;;;;;;;;;;18.00;99.90;;;;;;8383782;28;20015;-66
2022/07/22 23:28:51;;;;;;;;;;;17.90;99.90;;;;;;8394497;28;19925;-66
2022/07/22 23:32:53;;;;;;;;;;;17.90;99.90;;;;;;8394723;28;19951;-66
2022/07/22 23:36:54;;;;;;;;;;;17.80;99.90;;;;;;8384957;28;20298;-66
2022/07/22 23:41:02;;;;;;;;;;;17.70;99.90;;;;;;8382409;28;19924;-66
2022/07/22 23:45:04;;;;;;;;;;;17.70;99.90;;;;;;8409129;28;19929;-66
2022/07/22 23:49:05;;;;;;;;;;;17.70;99.90;;;;;;8375307;28;19925;-66
2022/07/22 23:53:07;;;;;;;;;;;17.60;99.90;;;;;;8388012;28;19961;-66
2022/07/22 23:57:09;;;;;;;;;;;17.60;99.90;;;;;;8392324;28;19951;-66
